Terminal Aerodrome Forecast
Issued by NWS

Current Version | Previous Version | Graphics & Text | Print | Product List | Glossary On
Versions: 1 2 3 4 5 6 7 8 9 10 11 12 13 14 15 16 17
000
FTUS41 KILN 201739
TAFLCK
TAF
KLCK 201739Z 2018/2118 19006KT P6SM SCT050 BKN150
     FM210000 18003KT P6SM SCT250
      TEMPO 2108/2111 4SM BR
     FM211400 20005KT P6SM FEW050 SCT250=

USA.gov is the U.S. government's official web portal to all federal, state and local government web resources and services.